Time;durP1;ratioP1;P1;durP2;ratioP2;P2;SDS_P1;SDS_P2;PMS_P1;PMS_P2;Temp;Humidity;BMP_temperature;BMP_pressure;BME280_temperature;BME280_humidity;BME280_pressure;Samples;Min_cycle;Max_cycle;Signal;HPM_P1;HPM_P2
2022/04/05 00:01:50;;;;;;;18.10;9.93;;;;;;;2.86;100.00;100698.60;1756408;81;21011;-62
2022/04/05 00:04:17;;;;;;;12.07;8.90;;;;;;;2.83;100.00;100690.98;1756510;81;21074;-62
2022/04/05 00:06:47;;;;;;;14.05;9.33;;;;;;;2.74;100.00;100689.81;1756767;82;21012;-62
2022/04/05 00:09:16;;;;;;;14.35;9.38;;;;;;;2.77;100.00;100693.59;1756492;81;21036;-62
2022/04/05 00:11:44;;;;;;;15.48;9.38;;;;;;;2.80;100.00;100684.24;1756755;81;21111;-62
2022/04/05 00:14:13;;;;;;;15.38;9.40;;;;;;;2.79;100.00;100685.08;1756509;81;21004;-62
2022/04/05 00:16:40;;;;;;;15.25;9.00;;;;;;;2.79;100.00;100682.54;1756603;82;21042;-62
2022/04/05 00:19:07;;;;;;;14.38;8.50;;;;;;;2.76;100.00;100681.75;1756509;81;21523;-61
2022/04/05 00:21:36;;;;;;;13.60;9.25;;;;;;;2.79;100.00;100682.97;1756434;81;21129;-61
2022/04/05 00:24:05;;;;;;;13.22;8.95;;;;;;;2.80;100.00;100686.78;1756097;81;21035;-62
2022/04/05 00:26:34;;;;;;;13.48;8.95;;;;;;;2.88;100.00;100684.58;1754184;82;21547;-62
2022/04/05 00:29:01;;;;;;;14.07;8.68;;;;;;;2.92;100.00;100682.42;1780372;80;21649;-62
2022/04/05 00:31:28;;;;;;;12.55;8.85;;;;;;;2.91;100.00;100675.23;1755064;82;21490;-62
2022/04/05 00:33:56;;;;;;;15.60;9.18;;;;;;;2.98;100.00;100685.77;1754392;82;21043;-62
2022/04/05 00:36:24;;;;;;;13.35;8.30;;;;;;;2.90;100.00;100673.56;1754939;81;21007;-62
2022/04/05 00:38:52;;;;;;;14.80;9.40;;;;;;;2.89;100.00;100676.95;1753102;82;21070;-61
2022/04/05 00:41:20;;;;;;;13.93;8.88;;;;;;;2.85;100.00;100678.27;1737181;82;21036;-61
2022/04/05 00:43:48;;;;;;;14.03;9.25;;;;;;;2.82;100.00;100677.87;1737617;82;21013;-61
2022/04/05 00:46:15;;;;;;;12.70;8.85;;;;;;;2.78;100.00;100670.70;1737683;82;21075;-61
2022/04/05 00:48:52;;;;;;;15.68;9.33;;;;;;;2.75;100.00;100672.42;1737916;82;21040;-61
2022/04/05 00:51:23;;;;;;;14.68;9.75;;;;;;;2.71;100.00;100667.79;1737924;82;21504;-61
2022/04/05 00:53:56;;;;;;;16.82;10.15;;;;;;;2.66;100.00;100672.52;1737772;82;21063;-61
2022/04/05 00:56:27;;;;;;;21.52;12.23;;;;;;;2.68;100.00;100672.08;1711268;84;21547;-61
2022/04/05 00:58:57;;;;;;;28.55;15.60;;;;;;;2.58;100.00;100675.13;1741106;82;21007;-62
2022/04/05 01:01:27;;;;;;;29.05;16.75;;;;;;;2.62;100.00;100669.16;1740551;82;21535;-61
2022/04/05 01:03:56;;;;;;;42.58;21.62;;;;;;;2.58;100.00;100670.05;1741252;82;21535;-61
2022/04/05 01:06:30;;;;;;;34.45;18.15;;;;;;;2.44;100.00;100669.31;1740995;82;21075;-61
2022/04/05 01:08:58;;;;;;;30.75;17.67;;;;;;;2.39;100.00;100665.52;1741236;82;21024;-61
2022/04/05 01:11:25;;;;;;;29.48;16.10;;;;;;;2.47;100.00;100671.81;1740985;82;21067;-61
2022/04/05 01:13:54;;;;;;;24.30;14.87;;;;;;;2.54;100.00;100669.66;1740741;82;21104;-61
2022/04/05 01:16:22;;;;;;;20.27;12.45;;;;;;;2.51;100.00;100665.41;1740967;82;21568;-61
2022/04/05 01:18:49;;;;;;;20.00;11.75;;;;;;;2.50;100.00;100665.02;1740853;82;21000;-61
2022/04/05 01:21:18;;;;;;;22.10;11.85;;;;;;;2.45;100.00;100665.47;1716324;82;21083;-61
2022/04/05 01:24:14;;;;;;;18.52;11.15;;;;;;;2.47;100.00;100663.76;1740700;82;21071;-61
2022/04/05 01:26:47;;;;;;;18.45;10.23;;;;;;;2.49;100.00;100665.02;1740819;82;21012;-61
2022/04/05 01:29:18;;;;;;;17.17;10.23;;;;;;;2.38;100.00;100660.03;1741192;82;21515;-62
2022/04/05 01:31:51;;;;;;;17.27;10.28;;;;;;;2.46;100.00;100663.36;1741069;82;21032;-61
2022/04/05 01:34:23;;;;;;;15.88;9.58;;;;;;;2.39;100.00;100655.36;1741099;82;21516;-61
2022/04/05 01:36:54;;;;;;;15.20;9.28;;;;;;;2.34;100.00;100659.65;1741013;82;21113;-61
2022/04/05 01:39:25;;;;;;;16.95;9.83;;;;;;;2.28;100.00;100650.80;1740896;82;21516;-61
2022/04/05 01:42:00;;;;;;;16.27;9.80;;;;;;;2.38;100.00;100649.44;1752625;82;21055;-61
2022/04/05 01:44:29;;;;;;;17.25;10.68;;;;;;;2.30;100.00;100646.55;1754331;82;21008;-61
2022/04/05 01:46:57;;;;;;;19.07;10.45;;;;;;;2.31;100.00;100649.49;1754713;82;21035;-61
2022/04/05 01:49:24;;;;;;;16.52;10.50;;;;;;;2.22;100.00;100645.77;1754772;82;21038;-61
2022/04/05 01:51:52;;;;;;;20.60;10.45;;;;;;;2.20;100.00;100641.53;1754480;82;21063;-61
2022/04/05 01:54:21;;;;;;;14.05;10.20;;;;;;;2.15;100.00;100652.57;1754474;81;21055;-61
2022/04/05 01:56:52;;;;;;;17.30;11.28;;;;;;;2.09;100.00;100638.65;1754614;82;21039;-61
2022/04/05 01:59:23;;;;;;;17.75;10.88;;;;;;;2.08;100.00;100640.79;1754781;82;21031;-61
2022/04/05 02:01:51;;;;;;;16.87;10.85;;;;;;;2.02;100.00;100632.78;1755103;80;21051;-61
2022/04/05 02:04:18;;;;;;;19.98;11.78;;;;;;;1.98;100.00;100634.92;1754553;82;21526;-61
2022/04/05 02:06:46;;;;;;;16.75;10.65;;;;;;;1.98;100.00;100637.46;1754454;82;21050;-61
2022/04/05 02:09:15;;;;;;;18.67;11.70;;;;;;;1.91;100.00;100637.94;1754774;81;21078;-61
2022/04/05 02:11:47;;;;;;;18.00;11.20;;;;;;;1.85;100.00;100641.78;1754801;81;21486;-61
2022/04/05 02:14:17;;;;;;;17.75;11.68;;;;;;;1.77;100.00;100643.09;1716783;82;21495;-61
2022/04/05 02:16:45;;;;;;;16.97;10.43;;;;;;;1.74;100.00;100639.72;1754478;81;20992;-61
2022/04/05 02:19:13;;;;;;;20.72;11.40;;;;;;;1.71;100.00;100641.02;1754694;81;21039;-61
2022/04/05 02:21:44;;;;;;;20.30;11.75;;;;;;;1.62;100.00;100638.52;1754439;82;21000;-61
2022/04/05 02:24:11;;;;;;;18.85;11.80;;;;;;;1.57;100.00;100639.82;1754788;82;21547;-61
2022/04/05 02:26:39;;;;;;;17.95;11.68;;;;;;;1.53;100.00;100646.59;1754553;82;21066;-62
2022/04/05 02:29:07;;;;;;;18.02;11.50;;;;;;;1.53;100.00;100650.84;1754463;82;21023;-61
2022/04/05 02:31:36;;;;;;;17.80;11.48;;;;;;;1.49;100.00;100648.73;1755125;80;21483;-61
2022/04/05 02:34:04;;;;;;;18.00;11.85;;;;;;;1.44;100.00;100647.06;1754447;81;21003;-61
2022/04/05 02:36:35;;;;;;;20.23;11.97;;;;;;;1.41;100.00;100646.66;1754999;80;21056;-62
2022/04/05 02:39:04;;;;;;;20.12;12.45;;;;;;;1.40;100.00;100644.98;1754459;82;21087;-61
2022/04/05 02:41:32;;;;;;;18.45;12.53;;;;;;;1.39;100.00;100647.92;1754975;82;21007;-61
2022/04/05 02:44:01;;;;;;;23.45;13.15;;;;;;;1.35;100.00;100650.05;1754739;82;21051;-61
2022/04/05 02:46:28;;;;;;;21.87;13.30;;;;;;;1.36;100.00;100650.48;1754630;82;21045;-61
2022/04/05 02:48:56;;;;;;;18.25;12.98;;;;;;;1.36;100.00;100646.69;1754877;82;21047;-61
2022/04/05 02:51:31;;;;;;;20.30;13.22;;;;;;;1.33;100.00;100646.68;1741201;80;21036;-61
2022/04/05 02:54:01;;;;;;;21.17;13.45;;;;;;;1.30;100.00;100648.38;1741251;81;21504;-61
2022/04/05 02:56:31;;;;;;;19.05;13.03;;;;;;;1.30;100.00;100651.78;1740853;82;21476;-61
2022/04/05 02:58:58;;;;;;;19.82;12.53;;;;;;;1.30;100.00;100652.19;1741134;82;21072;-61
2022/04/05 03:01:26;;;;;;;20.90;12.60;;;;;;;1.29;100.00;100646.27;1741077;82;21087;-61
2022/04/05 03:03:55;;;;;;;18.42;12.70;;;;;;;1.22;100.00;100648.83;1741170;82;21024;-61
2022/04/05 03:06:24;;;;;;;18.90;12.45;;;;;;;1.15;100.00;100641.67;1741381;82;21565;-61
2022/04/05 03:08:56;;;;;;;17.85;12.28;;;;;;;1.18;100.00;100643.78;1741251;82;21551;-61
2022/04/05 03:11:22;;;;;;;19.45;12.55;;;;;;;1.10;100.00;100643.41;1741129;81;21083;-61
2022/04/05 03:13:51;;;;;;;21.15;12.28;;;;;;;1.17;100.00;100647.59;1766135;80;21480;-61
2022/04/05 03:16:20;;;;;;;18.35;12.15;;;;;;;1.18;100.00;100646.75;1740844;82;21020;-61
2022/04/05 03:18:50;;;;;;;18.48;12.33;;;;;;;1.20;100.00;100647.16;1741124;82;21102;-61
2022/04/05 03:21:18;;;;;;;18.87;12.10;;;;;;;1.14;100.00;100649.72;1741145;82;21555;-61
2022/04/05 03:23:45;;;;;;;17.52;12.10;;;;;;;1.14;100.00;100648.88;1740927;82;21032;-62
2022/04/05 03:26:12;;;;;;;17.80;11.83;;;;;;;1.15;100.00;100650.55;1741163;82;21064;-61
2022/04/05 03:28:40;;;;;;;17.95;12.13;;;;;;;1.14;100.00;100648.45;1740945;82;21044;-61
2022/04/05 03:31:08;;;;;;;19.12;12.28;;;;;;;1.12;100.00;100648.88;1741047;82;21044;-61
2022/04/05 03:33:36;;;;;;;18.65;12.65;;;;;;;1.15;100.00;100653.92;1740783;82;21036;-61
2022/04/05 03:36:05;;;;;;;19.50;13.15;;;;;;;1.15;100.00;100651.39;1740905;82;21032;-61
2022/04/05 03:38:32;;;;;;;22.32;13.32;;;;;;;1.20;100.00;100653.93;1741179;82;21068;-61
2022/04/05 03:41:01;;;;;;;21.33;13.05;;;;;;;1.20;100.00;100648.86;1740811;81;21067;-61
2022/04/05 03:43:30;;;;;;;21.97;13.50;;;;;;;1.24;100.00;100638.26;1741013;82;21043;-61
2022/04/05 03:45:58;;;;;;;21.52;13.25;;;;;;;1.24;100.00;100639.12;1740894;82;21076;-61
2022/04/05 03:48:26;;;;;;;19.27;12.37;;;;;;;1.25;100.00;100647.13;1740818;82;21110;-61
2022/04/05 03:50:55;;;;;;;18.52;11.78;;;;;;;1.29;100.00;100645.44;1741001;82;21508;-61
2022/04/05 03:53:23;;;;;;;20.23;11.57;;;;;;;1.40;100.00;100644.98;1740854;82;21041;-61
2022/04/05 03:55:51;;;;;;;21.42;11.85;;;;;;;1.46;100.00;100646.63;1740871;82;21075;-61
2022/04/05 03:58:18;;;;;;;20.52;12.20;;;;;;;1.49;100.00;100644.92;1740754;82;21052;-61
2022/04/05 04:00:46;;;;;;;20.65;13.10;;;;;;;1.47;100.00;100648.33;1740792;82;21033;-61
2022/04/05 04:03:16;;;;;;;20.08;12.30;;;;;;;1.46;100.00;100642.82;1741361;80;21020;-61
2022/04/05 04:05:45;;;;;;;18.25;11.25;;;;;;;1.50;100.00;100642.83;1740778;82;21044;-61
2022/04/05 04:08:13;;;;;;;17.98;11.15;;;;;;;1.57;100.00;100643.63;1741125;82;21071;-61
2022/04/05 04:10:43;;;;;;;19.42;11.88;;;;;;;1.76;100.00;100642.69;1740844;82;20992;-61
2022/04/05 04:13:12;;;;;;;17.62;11.30;;;;;;;1.84;100.00;100640.08;1740828;82;21079;-61
2022/04/05 04:15:43;;;;;;;16.73;11.38;;;;;;;1.91;100.00;100637.11;1741191;80;21032;-61
2022/04/05 04:18:11;;;;;;;18.80;12.05;;;;;;;1.95;100.00;100637.50;1740986;82;21572;-61
2022/04/05 04:20:42;;;;;;;20.10;12.80;;;;;;;1.98;100.00;100642.11;1741022;82;21035;-61
2022/04/05 04:23:11;;;;;;;17.32;11.48;;;;;;;2.02;100.00;100642.09;1740603;82;21052;-61
2022/04/05 04:25:40;;;;;;;21.35;12.85;;;;;;;2.05;100.00;100651.81;1741009;82;21536;-61
2022/04/05 04:28:09;;;;;;;21.00;12.88;;;;;;;2.09;100.00;100655.16;1741033;82;21075;-61
2022/04/05 04:30:39;;;;;;;15.80;10.65;;;;;;;2.14;100.00;100659.36;1740996;82;21028;-61
2022/04/05 04:33:08;;;;;;;17.48;11.38;;;;;;;2.14;100.00;100652.17;1741078;82;21055;-62
2022/04/05 04:35:41;;;;;;;21.70;11.60;;;;;;;2.18;100.00;100663.56;1741022;82;21044;-61
2022/04/05 04:38:09;;;;;;;18.27;11.12;;;;;;;2.24;100.00;100658.03;1741160;82;21075;-61
2022/04/05 04:40:37;;;;;;;17.73;11.22;;;;;;;2.32;100.00;100658.81;1740994;82;21122;-61
2022/04/05 04:43:07;;;;;;;18.25;11.28;;;;;;;2.38;100.00;100649.88;1740873;82;21043;-62
2022/04/05 04:45:36;;;;;;;17.12;11.57;;;;;;;2.52;100.00;100650.60;1741010;82;21083;-61
2022/04/05 04:48:05;;;;;;;18.60;11.12;;;;;;;2.60;100.00;100656.89;1740717;82;21012;-61
2022/04/05 04:50:32;;;;;;;17.80;11.30;;;;;;;2.66;100.00;100663.63;1740852;82;21106;-61
2022/04/05 04:53:01;;;;;;;18.82;11.25;;;;;;;2.72;100.00;100663.57;1741016;82;21047;-61
2022/04/05 04:55:29;;;;;;;20.20;11.28;;;;;;;2.86;100.00;100666.82;1740772;82;21075;-61
2022/04/05 04:57:57;;;;;;;16.02;10.80;;;;;;;3.00;100.00;100662.84;1741074;82;21039;-61
2022/04/05 05:00:24;;;;;;;15.75;10.55;;;;;;;3.25;100.00;100657.08;1740872;82;21020;-61
2022/04/05 05:02:54;;;;;;;16.73;10.70;;;;;;;3.51;100.00;100652.11;1740733;82;21544;-61
2022/04/05 05:05:23;;;;;;;16.48;10.93;;;;;;;3.77;100.00;100659.38;1740990;82;21000;-61
2022/04/05 05:07:53;;;;;;;18.73;10.35;;;;;;;3.92;100.00;100651.98;1740739;82;21040;-61
2022/04/05 05:10:25;;;;;;;19.20;10.53;;;;;;;3.96;100.00;100653.17;1741024;82;21024;-62
2022/04/05 05:12:53;;;;;;;15.98;10.58;;;;;;;3.99;100.00;100654.83;1740929;82;21516;-61
2022/04/05 05:15:22;;;;;;;15.83;10.08;;;;;;;4.03;100.00;100652.64;1740678;82;21028;-62
2022/04/05 05:17:50;;;;;;;16.48;10.18;;;;;;;4.25;100.00;100668.45;1740758;82;21127;-61
2022/04/05 05:20:17;;;;;;;13.35;9.35;;;;;;;4.37;100.00;100658.06;1740670;82;21051;-61
2022/04/05 05:22:46;;;;;;;15.50;10.65;;;;;;;4.49;100.00;100658.75;1744055;82;21452;-62
2022/04/05 05:25:14;;;;;;;17.00;9.95;;;;;;;4.61;100.00;100668.30;1740453;82;21044;-61
2022/04/05 05:27:41;;;;;;;14.83;10.08;;;;;;;4.95;99.33;100679.63;1739842;82;21020;-62
2022/04/05 05:30:10;;;;;;;14.00;9.48;;;;;;;5.41;98.57;100673.22;1742653;82;21598;-62
2022/04/05 05:32:47;;;;;;;15.23;10.20;;;;;;;5.72;96.37;100670.02;1739027;82;21311;-62
2022/04/05 05:35:15;;;;;;;16.62;10.55;;;;;;;5.89;93.84;100663.70;1743741;81;21518;-62
2022/04/05 05:37:43;;;;;;;18.37;10.88;;;;;;;5.94;91.74;100664.01;1743215;82;20974;-62
2022/04/05 05:40:13;;;;;;;13.75;10.05;;;;;;;5.79;91.05;100657.95;1741807;82;21069;-62
2022/04/05 05:42:58;;;;;;;14.28;9.83;;;;;;;5.76;91.90;100659.31;1707455;82;21022;-62
2022/04/05 05:45:27;;;;;;;15.85;10.20;;;;;;;5.72;91.17;100652.14;1709365;83;21058;-63
2022/04/05 05:47:54;;;;;;;18.35;11.60;;;;;;;5.79;90.85;100657.50;1711292;83;20952;-62
2022/04/05 05:50:24;;;;;;;16.12;10.10;;;;;;;5.96;91.56;100661.02;1707592;83;21031;-62
2022/04/05 05:52:52;;;;;;;17.37;10.38;;;;;;;5.94;92.47;100657.63;1690098;85;21193;-62
2022/04/05 05:55:21;;;;;;;14.38;10.65;;;;;;;5.89;92.32;100654.76;1689794;85;21102;-62
2022/04/05 05:57:49;;;;;;;14.90;10.53;;;;;;;5.85;91.11;100653.14;1690062;85;21040;-62
2022/04/05 06:00:22;;;;;;;17.70;11.43;;;;;;;5.75;91.97;100646.95;1689684;85;21556;-62
2022/04/05 06:02:56;;;;;;;15.25;10.93;;;;;;;5.69;92.35;100643.25;1703806;83;21058;-62
2022/04/05 06:05:25;;;;;;;14.47;10.60;;;;;;;5.72;93.96;100647.48;1690068;85;21028;-62
2022/04/05 06:07:54;;;;;;;19.02;11.20;;;;;;;5.93;94.22;100651.26;1690037;85;21073;-62
2022/04/05 06:10:22;;;;;;;16.00;11.48;;;;;;;5.83;94.01;100645.51;1703659;83;21047;-62
2022/04/05 06:12:52;;;;;;;18.77;11.45;;;;;;;6.03;94.56;100645.09;1689760;85;21261;-62
2022/04/05 06:15:20;;;;;;;19.07;11.88;;;;;;;6.36;94.40;100639.60;1690047;85;21035;-62
2022/04/05 06:17:49;;;;;;;16.37;12.00;;;;;;;6.67;93.91;100636.72;1702768;83;21079;-63
2022/04/05 06:20:20;;;;;;;15.55;11.25;;;;;;;6.90;91.70;100639.52;1688767;85;21039;-62
2022/04/05 06:23:02;;;;;;;17.62;11.73;;;;;;;7.09;90.96;100632.17;1702673;83;21582;-62
2022/04/05 06:25:32;;;;;;;16.30;11.75;;;;;;;7.23;90.05;100627.50;1688864;85;21009;-61
2022/04/05 06:28:05;;;;;;;18.37;11.12;;;;;;;7.38;88.76;100630.09;1688948;85;21066;-62
2022/04/05 06:30:37;;;;;;;15.25;11.08;;;;;;;7.76;86.47;100633.22;1702623;84;21551;-61
2022/04/05 06:33:12;;;;;;;15.32;10.90;;;;;;;7.80;85.48;100627.11;1674649;85;21059;-62
2022/04/05 06:35:43;;;;;;;15.30;9.90;;;;;;;7.87;85.08;100624.36;1689160;85;21063;-62
2022/04/05 06:38:11;;;;;;;16.55;10.58;;;;;;;7.57;84.27;100621.41;1689252;85;21075;-61
2022/04/05 06:40:43;;;;;;;16.42;10.43;;;;;;;7.72;84.60;100625.22;1688781;85;21634;-62
2022/04/05 06:43:12;;;;;;;15.32;10.35;;;;;;;7.93;85.33;100619.07;1713363;83;21301;-62
2022/04/05 06:45:42;;;;;;;14.58;10.28;;;;;;;8.13;83.67;100614.14;1716206;83;20992;-62
2022/04/05 06:48:12;;;;;;;16.57;11.03;;;;;;;8.08;82.60;100608.77;1687506;84;21704;-62
2022/04/05 06:50:39;;;;;;;15.20;11.12;;;;;;;8.17;82.69;100602.04;1682242;85;21097;-62
2022/04/05 06:53:08;;;;;;;18.57;11.40;;;;;;;8.05;82.27;100608.42;1695068;85;21052;-62
2022/04/05 06:55:38;;;;;;;17.30;10.95;;;;;;;8.10;82.21;100604.42;1716125;83;21538;-62
2022/04/05 06:58:06;;;;;;;18.00;10.68;;;;;;;8.10;81.07;100597.56;1687496;84;21037;-62
2022/04/05 07:00:37;;;;;;;16.87;11.57;;;;;;;8.28;81.11;100601.70;1682159;85;21522;-62
2022/04/05 07:03:06;;;;;;;16.10;11.30;;;;;;;8.46;81.06;100594.70;1703158;83;21038;-63
2022/04/05 07:05:36;;;;;;;16.82;11.00;;;;;;;8.49;81.31;100601.00;1730158;82;21514;-63
2022/04/05 07:08:05;;;;;;;16.27;10.65;;;;;;;8.66;81.63;100598.30;1719672;83;21055;-62
2022/04/05 07:10:34;;;;;;;16.75;9.80;;;;;;;8.80;78.10;100599.52;1714011;83;21539;-62
2022/04/05 07:13:04;;;;;;;12.63;9.38;;;;;;;9.07;77.22;100598.13;1735347;82;21564;-62
2022/04/05 07:15:35;;;;;;;12.80;9.60;;;;;;;9.02;75.77;100602.58;1739277;82;21088;-62
2022/04/05 07:18:03;;;;;;;14.47;9.68;;;;;;;8.99;77.10;100602.70;1736727;82;21049;-62
2022/04/05 07:20:31;;;;;;;13.78;9.23;;;;;;;9.07;77.80;100594.73;1742619;82;21016;-62
2022/04/05 07:22:58;;;;;;;16.65;9.38;;;;;;;9.08;77.59;100599.79;1739143;82;20973;-62
2022/04/05 07:25:26;;;;;;;13.08;8.90;;;;;;;9.21;77.85;100598.92;1737156;82;21036;-62
2022/04/05 07:27:54;;;;;;;10.93;7.85;;;;;;;9.50;78.36;100591.84;1738912;82;21613;-62
2022/04/05 07:30:21;;;;;;;12.25;8.43;;;;;;;9.47;76.74;100590.66;1741278;82;21023;-62
2022/04/05 07:32:49;;;;;;;12.65;9.03;;;;;;;9.51;77.93;100589.64;1745043;82;21063;-62
2022/04/05 07:35:18;;;;;;;12.93;8.53;;;;;;;9.76;78.10;100585.70;1704369;83;21044;-62
2022/04/05 07:37:46;;;;;;;12.28;9.15;;;;;;;9.75;80.56;100582.30;1741956;82;21044;-63
2022/04/05 07:40:14;;;;;;;13.72;9.58;;;;;;;9.66;83.55;100576.67;1737404;82;21032;-63
2022/04/05 07:42:45;;;;;;;12.88;9.45;;;;;;;9.43;86.01;100577.95;1736636;81;21575;-62
2022/04/05 07:45:15;;;;;;;14.65;9.55;;;;;;;9.58;87.87;100575.22;1751545;82;21027;-62
2022/04/05 07:47:43;;;;;;;18.92;9.18;;;;;;;9.76;89.59;100574.95;1751753;82;20987;-62
2022/04/05 07:50:11;;;;;;;13.13;9.18;;;;;;;9.90;89.68;100566.69;1740435;82;20964;-62
2022/04/05 07:52:38;;;;;;;13.35;9.15;;;;;;;9.70;87.61;100562.34;1701836;83;20996;-62
2022/04/05 07:55:07;;;;;;;13.93;9.18;;;;;;;9.73;87.79;100559.67;1721786;83;21095;-62
2022/04/05 07:57:36;;;;;;;12.95;8.20;;;;;;;9.70;88.06;100548.66;1710048;84;20982;-61
2022/04/05 08:00:06;;;;;;;14.78;8.63;;;;;;;9.91;88.89;100547.78;1741277;80;21058;-63
2022/04/05 08:02:35;;;;;;;15.55;8.95;;;;;;;10.39;88.69;100543.27;1749854;80;21465;-63
2022/04/05 08:05:04;;;;;;;13.35;7.90;;;;;;;10.50;87.64;100536.37;1751488;80;21086;-63
2022/04/05 08:07:33;;;;;;;10.95;7.58;;;;;;;10.51;85.63;100545.78;1740038;82;21524;-64
2022/04/05 08:10:00;;;;;;;10.53;7.92;;;;;;;10.44;84.83;100533.60;1742986;82;21468;-63
2022/04/05 08:12:43;;;;;;;11.20;7.42;;;;;;;10.23;85.72;100542.59;1739361;82;21091;-62
2022/04/05 08:15:13;;;;;;;10.45;7.58;;;;;;;10.17;84.64;100524.84;1752819;80;21626;-63
2022/04/05 08:17:41;;;;;;;12.65;7.10;;;;;;;9.98;84.76;100534.25;1729456;81;20984;-62
2022/04/05 08:20:11;;;;;;;11.97;6.97;;;;;;;10.03;84.66;100530.56;1742996;82;21036;-63
2022/04/05 08:22:38;;;;;;;9.15;6.50;;;;;;;10.30;84.18;100517.92;1740514;82;21007;-63
2022/04/05 08:25:09;;;;;;;10.08;6.95;;;;;;;10.36;85.07;100523.66;1755075;80;21030;-63
2022/04/05 08:27:38;;;;;;;11.28;7.15;;;;;;;10.67;84.65;100520.21;1715353;83;21469;-63
2022/04/05 08:30:08;;;;;;;10.80;6.90;;;;;;;11.21;82.97;100515.58;1741502;82;21059;-63
2022/04/05 08:32:38;;;;;;;7.83;6.58;;;;;;;11.45;78.97;100508.04;1743545;82;21567;-62
2022/04/05 08:35:06;;;;;;;8.08;6.17;;;;;;;11.65;78.29;100511.78;1739202;82;20990;-62
2022/04/05 08:37:34;;;;;;;9.55;6.80;;;;;;;11.71;77.42;100505.50;1705007;83;20980;-62
2022/04/05 08:40:06;;;;;;;8.48;6.47;;;;;;;11.84;76.57;100500.12;1739693;82;21068;-62
2022/04/05 08:42:34;;;;;;;9.08;6.85;;;;;;;11.62;76.07;100509.36;1736376;82;21131;-62
2022/04/05 08:45:10;;;;;;;9.58;6.55;;;;;;;11.09;75.90;100496.83;1723444;82;21004;-62
2022/04/05 08:47:46;;;;;;;8.85;7.00;;;;;;;10.79;77.19;100501.64;1726227;82;21543;-61
2022/04/05 08:50:20;;;;;;;10.00;6.47;;;;;;;10.64;77.88;100494.13;1725963;82;21008;-62
2022/04/05 08:52:48;;;;;;;;;;;;;;;10.80;77.41;100491.24;1728644;82;21550;-62
2022/04/05 08:55:16;;;;;;;8.83;6.97;;;;;;;11.19;77.87;100483.89;1724212;82;20182;-62
2022/04/05 08:57:44;;;;;;;9.15;7.08;;;;;;;11.80;77.05;100484.39;1726852;82;21060;-62
2022/04/05 09:00:14;;;;;;;9.30;7.47;;;;;;;12.01;76.09;100481.25;1725354;82;20999;-62
2022/04/05 09:03:00;;;;;;;11.43;7.17;;;;;;;11.91;74.38;100471.02;1725764;82;21029;-62
2022/04/05 09:05:33;;;;;;;9.95;6.80;;;;;;;11.38;74.36;100469.67;1731139;82;21028;-62
2022/04/05 09:08:31;;;;;;;9.40;7.60;;;;;;;11.14;75.04;100472.13;1723502;82;21067;-62
2022/04/05 09:11:12;;;;;;;9.13;7.10;;;;;;;10.89;75.36;100463.41;1728104;82;21055;-62
2022/04/05 09:13:40;;;;;;;;;;;;;;;10.74;75.89;100462.38;1728068;82;21028;-62
2022/04/05 09:16:08;;;;;;;10.48;7.05;;;;;;;10.57;74.38;100463.97;1730444;82;20155;-61
2022/04/05 09:18:42;;;;;;;11.95;7.92;;;;;;;10.64;75.37;100436.20;1724055;82;21008;-62
2022/04/05 09:21:14;;;;;;;11.60;8.20;;;;;;;10.47;74.37;100447.27;1721986;82;21587;-61
2022/04/05 09:23:44;;;;;;;14.38;9.20;;;;;;;10.38;74.72;100452.38;1725699;82;20973;-61
2022/04/05 09:26:17;;;;;;;11.33;7.87;;;;;;;10.43;75.00;100446.56;1732351;82;21106;-61
2022/04/05 09:28:50;;;;;;;9.48;7.78;;;;;;;10.51;75.79;100437.22;1730992;82;21071;-62
2022/04/05 09:31:21;;;;;;;9.08;7.80;;;;;;;10.40;77.94;100437.71;1724979;82;21013;-62
2022/04/05 09:34:12;;;;;;;10.10;7.75;;;;;;;10.35;80.21;100446.53;1726317;82;21043;-62
2022/04/05 09:36:43;;;;;;;10.25;7.87;;;;;;;10.56;80.63;100434.43;1726165;82;21047;-62
2022/04/05 09:39:25;;;;;;;8.73;6.92;;;;;;;10.94;79.47;100425.41;1727193;82;21046;-62
2022/04/05 09:42:09;;;;;;;8.70;7.37;;;;;;;11.02;77.92;100417.69;1716771;83;21055;-62
2022/04/05 09:44:42;;;;;;;11.38;7.65;;;;;;;10.99;76.26;100415.73;1719851;82;21022;-63
2022/04/05 09:47:19;;;;;;;9.00;6.83;;;;;;;10.92;75.71;100400.18;1722110;83;21031;-62
2022/04/05 09:49:49;;;;;;;8.70;6.83;;;;;;;10.91;75.74;100407.08;1754952;81;21046;-62
2022/04/05 09:52:33;;;;;;;11.45;7.80;;;;;;;11.34;74.23;100418.36;1753769;81;21047;-62
2022/04/05 09:55:14;;;;;;;8.40;6.85;;;;;;;11.66;73.66;100402.59;1723709;83;21240;-62
2022/04/05 09:57:43;;;;;;;9.73;7.42;;;;;;;11.93;71.81;100397.80;1760589;81;21484;-62
2022/04/05 10:00:19;;;;;;;8.75;7.10;;;;;;;11.73;70.42;100382.48;1724960;81;21010;-62
2022/04/05 10:03:08;;;;;;;8.73;6.92;;;;;;;11.71;70.41;100378.68;1758992;81;20971;-62
2022/04/05 10:05:39;;;;;;;8.93;7.03;;;;;;;11.54;71.20;100391.60;1720844;83;21043;-63
2022/04/05 10:08:07;;;;;;;12.28;8.23;;;;;;;11.29;71.82;100390.21;1772565;80;21077;-63
2022/04/05 10:10:36;;;;;;;10.98;7.17;;;;;;;11.37;73.09;100379.53;1766942;79;21011;-62
2022/04/05 10:13:04;;;;;;;13.32;7.60;;;;;;;11.24;72.12;100376.73;1767067;79;21042;-62
2022/04/05 10:15:34;;;;;;;9.38;7.30;;;;;;;11.03;72.21;100385.06;1773116;80;21035;-62
2022/04/05 10:18:02;;;;;;;9.68;6.80;;;;;;;10.94;72.38;100380.34;1761627;80;21531;-62
2022/04/05 10:20:33;;;;;;;8.05;6.75;;;;;;;11.07;72.76;100373.70;1753035;81;21503;-62
2022/04/05 10:23:03;;;;;;;8.10;6.72;;;;;;;11.22;73.00;100372.11;1757279;81;20999;-62
2022/04/05 10:25:30;;;;;;;9.85;6.50;;;;;;;11.63;72.15;100370.50;1725484;82;21017;-62
2022/04/05 10:28:01;;;;;;;8.90;6.40;;;;;;;11.95;70.75;100355.98;1737027;82;21040;-62
2022/04/05 10:30:40;;;;;;;9.53;6.47;;;;;;;11.99;70.65;100348.92;1721242;83;21047;-62
2022/04/05 10:33:28;;;;;;;9.98;6.33;;;;;;;11.93;69.86;100353.12;1771619;80;21503;-62
2022/04/05 10:35:58;;;;;;;9.60;6.45;;;;;;;11.78;71.15;100341.80;1739950;80;21027;-63
2022/04/05 10:38:29;;;;;;;10.35;6.60;;;;;;;11.53;72.02;100347.39;1777843;80;21558;-63
2022/04/05 10:41:20;;;;;;;9.25;6.47;;;;;;;11.57;72.47;100347.61;1771724;80;20986;-63
2022/04/05 10:44:19;;;;;;;9.00;6.37;;;;;;;11.54;71.38;100350.36;1761587;80;21077;-63
2022/04/05 10:46:57;;;;;;;9.88;6.25;;;;;;;11.40;71.30;100353.16;1716066;83;21027;-63
2022/04/05 10:49:43;;;;;;;9.08;6.55;;;;;;;11.35;71.73;100350.43;1712126;83;21028;-63
2022/04/05 10:52:19;;;;;;;8.68;6.30;;;;;;;11.28;72.82;100336.20;1761926;80;21035;-63
2022/04/05 10:54:52;;;;;;;8.00;6.10;;;;;;;11.07;71.91;100324.76;1738428;82;21060;-62
2022/04/05 10:57:34;;;;;;;9.15;6.60;;;;;;;11.23;71.78;100326.95;1678204;85;21050;-62
2022/04/05 11:00:14;;;;;;;7.20;5.97;;;;;;;11.64;70.93;100320.62;1741683;82;21536;-63
2022/04/05 11:02:47;;;;;;;8.48;5.80;;;;;;;12.23;70.18;100316.66;1721598;83;21047;-63
2022/04/05 11:05:20;;;;;;;6.42;5.28;;;;;;;12.78;67.59;100305.02;1783783;80;22711;-62
2022/04/05 11:08:01;;;;;;;7.90;5.58;;;;;;;12.93;66.70;100311.06;1722065;83;21051;-62
2022/04/05 11:10:40;;;;;;;8.23;5.47;;;;;;;12.79;65.72;100306.70;1751752;82;21047;-63
2022/04/05 11:13:14;;;;;;;7.50;5.53;;;;;;;12.74;63.40;100297.08;1751173;82;21095;-62
2022/04/05 11:15:54;;;;;;;8.38;5.62;;;;;;;12.92;64.66;100296.49;1751604;82;21079;-62
2022/04/05 11:18:26;;;;;;;11.45;7.40;;;;;;;12.76;63.91;100297.00;1748979;82;21496;-63
2022/04/05 11:20:56;;;;;;;9.63;6.45;;;;;;;12.60;63.54;100291.86;1751696;82;21067;-62
2022/04/05 11:23:47;;;;;;;9.28;6.28;;;;;;;12.43;63.26;100292.80;1751703;82;21535;-62
2022/04/05 11:26:39;;;;;;;8.38;5.15;;;;;;;12.26;64.24;100279.52;1751492;82;21122;-63
2022/04/05 11:29:21;;;;;;;6.60;5.45;;;;;;;12.01;64.21;100270.99;1751556;82;21508;-62
2022/04/05 11:32:09;;;;;;;6.20;5.00;;;;;;;12.05;64.07;100284.56;1751581;82;21051;-62
2022/04/05 11:34:45;;;;;;;7.28;5.78;;;;;;;12.53;63.36;100272.01;1751567;82;21087;-62